sensor_id;sensor_type;location;lat;lon;timestamp;P1;durP1;ratioP1;P2;durP2;ratioP2
27199;SDS011;14714;48.106;11.546;2023-04-25T00:00:20;3.25;;;2.00;;
27199;SDS011;14714;48.106;11.546;2023-04-25T00:02:46;3.30;;;2.38;;
27199;SDS011;14714;48.106;11.546;2023-04-25T00:05:13;3.60;;;2.30;;
27199;SDS011;14714;48.106;11.546;2023-04-25T00:07:43;2.40;;;2.00;;
27199;SDS011;14714;48.106;11.546;2023-04-25T00:10:10;4.03;;;2.50;;
27199;SDS011;14714;48.106;11.546;2023-04-25T00:12:37;2.42;;;2.13;;
27199;SDS011;14714;48.106;11.546;2023-04-25T00:15:05;5.55;;;2.10;;
27199;SDS011;14714;48.106;11.546;2023-04-25T00:17:32;3.25;;;2.20;;
27199;SDS011;14714;48.106;11.546;2023-04-25T00:20:01;2.30;;;2.00;;
27199;SDS011;14714;48.106;11.546;2023-04-25T00:22:31;2.85;;;2.20;;
27199;SDS011;14714;48.106;11.546;2023-04-25T00:24:59;2.85;;;2.20;;
27199;SDS011;14714;48.106;11.546;2023-04-25T00:27:26;5.57;;;2.30;;
27199;SDS011;14714;48.106;11.546;2023-04-25T00:29:53;5.32;;;2.30;;
27199;SDS011;14714;48.106;11.546;2023-04-25T00:32:20;2.90;;;2.38;;
27199;SDS011;14714;48.106;11.546;2023-04-25T00:34:46;6.30;;;2.20;;
27199;SDS011;14714;48.106;11.546;2023-04-25T00:37:13;2.85;;;2.00;;
27199;SDS011;14714;48.106;11.546;2023-04-25T00:39:40;3.38;;;2.30;;
27199;SDS011;14714;48.106;11.546;2023-04-25T00:42:07;3.88;;;2.28;;
27199;SDS011;14714;48.106;11.546;2023-04-25T00:44:34;3.88;;;2.50;;
27199;SDS011;14714;48.106;11.546;2023-04-25T00:47:02;4.15;;;2.50;;
27199;SDS011;14714;48.106;11.546;2023-04-25T00:49:29;4.50;;;2.65;;
27199;SDS011;14714;48.106;11.546;2023-04-25T00:51:56;4.82;;;2.70;;
27199;SDS011;14714;48.106;11.546;2023-04-25T00:54:23;7.25;;;3.10;;
27199;SDS011;14714;48.106;11.546;2023-04-25T00:56:52;6.95;;;3.35;;
27199;SDS011;14714;48.106;11.546;2023-04-25T00:59:19;4.60;;;3.13;;
27199;SDS011;14714;48.106;11.546;2023-04-25T01:01:47;5.45;;;2.90;;
27199;SDS011;14714;48.106;11.546;2023-04-25T01:04:13;4.78;;;2.72;;
27199;SDS011;14714;48.106;11.546;2023-04-25T01:06:41;5.13;;;2.60;;
27199;SDS011;14714;48.106;11.546;2023-04-25T01:09:07;3.78;;;2.58;;
27199;SDS011;14714;48.106;11.546;2023-04-25T01:11:35;4.85;;;2.90;;
27199;SDS011;14714;48.106;11.546;2023-04-25T01:14:02;3.85;;;2.83;;
27199;SDS011;14714;48.106;11.546;2023-04-25T01:16:29;2.95;;;2.35;;
27199;SDS011;14714;48.106;11.546;2023-04-25T01:18:56;3.67;;;2.40;;
27199;SDS011;14714;48.106;11.546;2023-04-25T01:21:23;4.60;;;2.50;;
27199;SDS011;14714;48.106;11.546;2023-04-25T01:23:53;3.33;;;2.60;;
27199;SDS011;14714;48.106;11.546;2023-04-25T01:26:20;6.25;;;2.40;;
27199;SDS011;14714;48.106;11.546;2023-04-25T01:28:48;5.68;;;2.42;;
27199;SDS011;14714;48.106;11.546;2023-04-25T01:31:15;3.72;;;2.22;;
27199;SDS011;14714;48.106;11.546;2023-04-25T01:33:44;2.60;;;2.05;;
27199;SDS011;14714;48.106;11.546;2023-04-25T01:36:11;3.50;;;2.30;;
27199;SDS011;14714;48.106;11.546;2023-04-25T01:38:39;4.68;;;2.30;;
27199;SDS011;14714;48.106;11.546;2023-04-25T01:41:06;4.18;;;2.40;;
27199;SDS011;14714;48.106;11.546;2023-04-25T01:43:33;3.25;;;2.30;;
27199;SDS011;14714;48.106;11.546;2023-04-25T01:46:00;4.10;;;2.40;;
27199;SDS011;14714;48.106;11.546;2023-04-25T01:48:27;4.53;;;2.10;;
27199;SDS011;14714;48.106;11.546;2023-04-25T01:50:54;3.35;;;2.40;;
27199;SDS011;14714;48.106;11.546;2023-04-25T01:53:20;3.28;;;2.30;;
27199;SDS011;14714;48.106;11.546;2023-04-25T01:55:49;4.90;;;2.65;;
27199;SDS011;14714;48.106;11.546;2023-04-25T01:58:15;3.72;;;2.45;;
27199;SDS011;14714;48.106;11.546;2023-04-25T02:00:42;4.32;;;2.40;;
27199;SDS011;14714;48.106;11.546;2023-04-25T02:03:09;4.20;;;2.42;;
27199;SDS011;14714;48.106;11.546;2023-04-25T02:05:39;3.17;;;2.15;;
27199;SDS011;14714;48.106;11.546;2023-04-25T02:10:34;3.63;;;2.40;;
27199;SDS011;14714;48.106;11.546;2023-04-25T02:13:01;3.65;;;2.50;;
27199;SDS011;14714;48.106;11.546;2023-04-25T02:15:29;8.43;;;2.60;;
27199;SDS011;14714;48.106;11.546;2023-04-25T02:17:56;4.18;;;2.50;;
27199;SDS011;14714;48.106;11.546;2023-04-25T02:20:24;3.75;;;2.45;;
27199;SDS011;14714;48.106;11.546;2023-04-25T02:22:51;3.33;;;2.65;;
27199;SDS011;14714;48.106;11.546;2023-04-25T02:25:19;2.55;;;2.35;;
27199;SDS011;14714;48.106;11.546;2023-04-25T02:27:46;4.07;;;2.70;;
27199;SDS011;14714;48.106;11.546;2023-04-25T02:30:13;3.58;;;2.72;;
27199;SDS011;14714;48.106;11.546;2023-04-25T02:32:41;5.05;;;2.63;;
27199;SDS011;14714;48.106;11.546;2023-04-25T02:35:08;7.47;;;2.40;;
27199;SDS011;14714;48.106;11.546;2023-04-25T02:37:36;5.10;;;2.22;;
27199;SDS011;14714;48.106;11.546;2023-04-25T02:40:04;4.03;;;2.50;;
27199;SDS011;14714;48.106;11.546;2023-04-25T02:42:31;4.82;;;2.40;;
27199;SDS011;14714;48.106;11.546;2023-04-25T02:44:58;4.53;;;2.38;;
27199;SDS011;14714;48.106;11.546;2023-04-25T02:47:25;2.95;;;2.33;;
27199;SDS011;14714;48.106;11.546;2023-04-25T02:49:52;4.75;;;2.53;;
27199;SDS011;14714;48.106;11.546;2023-04-25T02:52:19;3.75;;;2.50;;
27199;SDS011;14714;48.106;11.546;2023-04-25T02:54:47;3.45;;;2.47;;
27199;SDS011;14714;48.106;11.546;2023-04-25T02:57:14;4.32;;;2.40;;
27199;SDS011;14714;48.106;11.546;2023-04-25T02:59:41;5.45;;;2.50;;
27199;SDS011;14714;48.106;11.546;2023-04-25T03:02:07;3.42;;;2.35;;
27199;SDS011;14714;48.106;11.546;2023-04-25T03:04:34;4.35;;;2.45;;
27199;SDS011;14714;48.106;11.546;2023-04-25T03:07:01;4.25;;;2.53;;
27199;SDS011;14714;48.106;11.546;2023-04-25T03:09:28;3.17;;;2.40;;
27199;SDS011;14714;48.106;11.546;2023-04-25T03:11:55;5.57;;;2.88;;
27199;SDS011;14714;48.106;11.546;2023-04-25T03:14:22;5.65;;;2.60;;
27199;SDS011;14714;48.106;11.546;2023-04-25T03:16:48;5.20;;;2.53;;
27199;SDS011;14714;48.106;11.546;2023-04-25T03:19:15;4.22;;;2.65;;
27199;SDS011;14714;48.106;11.546;2023-04-25T03:21:43;6.60;;;3.13;;
27199;SDS011;14714;48.106;11.546;2023-04-25T03:24:10;5.50;;;2.60;;
27199;SDS011;14714;48.106;11.546;2023-04-25T03:26:38;4.72;;;2.50;;
27199;SDS011;14714;48.106;11.546;2023-04-25T03:29:04;4.13;;;2.35;;
27199;SDS011;14714;48.106;11.546;2023-04-25T03:31:31;4.90;;;2.60;;
27199;SDS011;14714;48.106;11.546;2023-04-25T03:33:58;4.78;;;2.70;;
27199;SDS011;14714;48.106;11.546;2023-04-25T03:36:25;7.28;;;2.63;;
27199;SDS011;14714;48.106;11.546;2023-04-25T03:38:51;4.35;;;2.40;;
27199;SDS011;14714;48.106;11.546;2023-04-25T03:41:18;5.95;;;2.35;;
27199;SDS011;14714;48.106;11.546;2023-04-25T03:43:45;3.60;;;2.08;;
27199;SDS011;14714;48.106;11.546;2023-04-25T03:46:12;3.40;;;2.00;;
27199;SDS011;14714;48.106;11.546;2023-04-25T03:48:39;4.03;;;1.95;;
27199;SDS011;14714;48.106;11.546;2023-04-25T03:51:05;3.78;;;2.10;;
27199;SDS011;14714;48.106;11.546;2023-04-25T03:53:32;4.47;;;2.20;;
27199;SDS011;14714;48.106;11.546;2023-04-25T03:55:59;4.07;;;2.20;;
27199;SDS011;14714;48.106;11.546;2023-04-25T03:58:26;2.78;;;2.03;;
27199;SDS011;14714;48.106;11.546;2023-04-25T04:00:52;2.85;;;2.10;;
27199;SDS011;14714;48.106;11.546;2023-04-25T04:03:19;5.22;;;2.28;;
27199;SDS011;14714;48.106;11.546;2023-04-25T04:05:47;4.75;;;2.05;;
27199;SDS011;14714;48.106;11.546;2023-04-25T04:08:14;2.65;;;2.03;;
27199;SDS011;14714;48.106;11.546;2023-04-25T04:10:40;2.08;;;1.80;;
27199;SDS011;14714;48.106;11.546;2023-04-25T04:13:07;3.33;;;2.10;;
27199;SDS011;14714;48.106;11.546;2023-04-25T04:15:34;2.92;;;1.80;;
27199;SDS011;14714;48.106;11.546;2023-04-25T04:18:01;5.25;;;2.20;;
27199;SDS011;14714;48.106;11.546;2023-04-25T04:20:29;2.38;;;1.80;;
27199;SDS011;14714;48.106;11.546;2023-04-25T04:22:59;2.70;;;1.90;;
27199;SDS011;14714;48.106;11.546;2023-04-25T04:25:25;2.72;;;1.70;;
27199;SDS011;14714;48.106;11.546;2023-04-25T04:27:52;2.13;;;1.80;;
27199;SDS011;14714;48.106;11.546;2023-04-25T04:30:22;4.40;;;2.13;;
27199;SDS011;14714;48.106;11.546;2023-04-25T04:32:56;4.68;;;2.30;;
27199;SDS011;14714;48.106;11.546;2023-04-25T04:35:23;2.75;;;1.90;;
27199;SDS011;14714;48.106;11.546;2023-04-25T04:37:50;2.78;;;2.15;;
27199;SDS011;14714;48.106;11.546;2023-04-25T04:40:17;3.22;;;2.20;;
27199;SDS011;14714;48.106;11.546;2023-04-25T04:42:44;3.10;;;2.08;;
27199;SDS011;14714;48.106;11.546;2023-04-25T04:45:11;5.05;;;2.33;;
27199;SDS011;14714;48.106;11.546;2023-04-25T04:47:39;3.03;;;2.20;;
27199;SDS011;14714;48.106;11.546;2023-04-25T04:50:07;3.03;;;2.17;;
27199;SDS011;14714;48.106;11.546;2023-04-25T04:52:35;3.15;;;2.03;;
27199;SDS011;14714;48.106;11.546;2023-04-25T04:55:03;4.82;;;2.10;;
27199;SDS011;14714;48.106;11.546;2023-04-25T04:57:31;4.20;;;2.15;;
27199;SDS011;14714;48.106;11.546;2023-04-25T04:59:59;3.58;;;2.38;;
27199;SDS011;14714;48.106;11.546;2023-04-25T05:02:26;2.38;;;1.98;;
27199;SDS011;14714;48.106;11.546;2023-04-25T05:04:53;4.80;;;2.60;;
27199;SDS011;14714;48.106;11.546;2023-04-25T05:07:20;3.03;;;2.13;;
27199;SDS011;14714;48.106;11.546;2023-04-25T05:09:47;5.22;;;2.40;;
27199;SDS011;14714;48.106;11.546;2023-04-25T05:12:14;3.45;;;2.00;;
27199;SDS011;14714;48.106;11.546;2023-04-25T05:14:40;5.10;;;2.35;;
27199;SDS011;14714;48.106;11.546;2023-04-25T05:17:07;4.53;;;2.28;;
27199;SDS011;14714;48.106;11.546;2023-04-25T05:19:34;5.13;;;2.20;;
27199;SDS011;14714;48.106;11.546;2023-04-25T05:22:02;5.03;;;2.35;;
27199;SDS011;14714;48.106;11.546;2023-04-25T05:24:29;2.88;;;2.30;;
27199;SDS011;14714;48.106;11.546;2023-04-25T05:26:56;4.32;;;2.20;;
27199;SDS011;14714;48.106;11.546;2023-04-25T05:29:23;8.25;;;2.83;;
27199;SDS011;14714;48.106;11.546;2023-04-25T05:31:50;6.00;;;2.45;;
27199;SDS011;14714;48.106;11.546;2023-04-25T05:34:17;6.53;;;2.63;;
27199;SDS011;14714;48.106;11.546;2023-04-25T05:36:43;5.32;;;2.55;;
27199;SDS011;14714;48.106;11.546;2023-04-25T05:39:10;3.53;;;2.50;;
27199;SDS011;14714;48.106;11.546;2023-04-25T05:41:37;6.22;;;2.42;;
27199;SDS011;14714;48.106;11.546;2023-04-25T05:44:04;6.82;;;2.63;;
27199;SDS011;14714;48.106;11.546;2023-04-25T05:46:31;4.35;;;2.50;;
27199;SDS011;14714;48.106;11.546;2023-04-25T05:48:58;4.40;;;2.63;;
27199;SDS011;14714;48.106;11.546;2023-04-25T05:51:25;4.28;;;2.58;;
27199;SDS011;14714;48.106;11.546;2023-04-25T05:53:52;6.22;;;2.65;;
27199;SDS011;14714;48.106;11.546;2023-04-25T05:56:19;4.43;;;2.20;;
27199;SDS011;14714;48.106;11.546;2023-04-25T05:58:46;3.92;;;2.50;;
27199;SDS011;14714;48.106;11.546;2023-04-25T06:01:13;8.18;;;2.70;;
27199;SDS011;14714;48.106;11.546;2023-04-25T06:03:40;6.00;;;2.38;;
27199;SDS011;14714;48.106;11.546;2023-04-25T06:06:09;3.90;;;2.40;;
27199;SDS011;14714;48.106;11.546;2023-04-25T06:08:36;6.72;;;2.65;;
27199;SDS011;14714;48.106;11.546;2023-04-25T06:11:03;5.68;;;2.30;;
27199;SDS011;14714;48.106;11.546;2023-04-25T06:13:30;4.43;;;2.50;;
27199;SDS011;14714;48.106;11.546;2023-04-25T06:15:57;6.85;;;2.22;;
27199;SDS011;14714;48.106;11.546;2023-04-25T06:18:24;8.25;;;2.42;;
27199;SDS011;14714;48.106;11.546;2023-04-25T06:20:51;3.90;;;2.33;;
27199;SDS011;14714;48.106;11.546;2023-04-25T06:23:17;5.90;;;2.67;;
27199;SDS011;14714;48.106;11.546;2023-04-25T06:25:44;4.60;;;2.38;;
27199;SDS011;14714;48.106;11.546;2023-04-25T06:28:11;4.45;;;2.60;;
27199;SDS011;14714;48.106;11.546;2023-04-25T06:30:38;7.68;;;2.60;;
27199;SDS011;14714;48.106;11.546;2023-04-25T06:33:05;3.95;;;2.80;;
27199;SDS011;14714;48.106;11.546;2023-04-25T06:35:31;6.03;;;3.03;;
27199;SDS011;14714;48.106;11.546;2023-04-25T06:37:58;4.70;;;2.72;;
27199;SDS011;14714;48.106;11.546;2023-04-25T06:40:26;5.18;;;2.88;;
27199;SDS011;14714;48.106;11.546;2023-04-25T06:42:52;5.20;;;2.70;;
27199;SDS011;14714;48.106;11.546;2023-04-25T06:45:19;5.10;;;3.20;;
27199;SDS011;14714;48.106;11.546;2023-04-25T06:47:46;3.60;;;2.63;;
27199;SDS011;14714;48.106;11.546;2023-04-25T06:50:13;5.07;;;2.88;;
27199;SDS011;14714;48.106;11.546;2023-04-25T06:52:39;5.68;;;2.83;;
27199;SDS011;14714;48.106;11.546;2023-04-25T06:55:06;5.00;;;2.58;;
27199;SDS011;14714;48.106;11.546;2023-04-25T06:57:33;4.72;;;2.67;;
27199;SDS011;14714;48.106;11.546;2023-04-25T07:00:00;5.05;;;2.50;;
27199;SDS011;14714;48.106;11.546;2023-04-25T07:02:27;6.70;;;2.78;;
27199;SDS011;14714;48.106;11.546;2023-04-25T07:04:55;4.22;;;2.30;;
27199;SDS011;14714;48.106;11.546;2023-04-25T07:07:26;4.20;;;2.60;;
27199;SDS011;14714;48.106;11.546;2023-04-25T07:09:53;4.57;;;2.78;;
27199;SDS011;14714;48.106;11.546;2023-04-25T07:12:19;3.80;;;2.53;;
27199;SDS011;14714;48.106;11.546;2023-04-25T07:14:46;3.95;;;2.65;;
27199;SDS011;14714;48.106;11.546;2023-04-25T07:17:13;3.60;;;2.13;;
27199;SDS011;14714;48.106;11.546;2023-04-25T07:19:40;4.88;;;2.35;;
27199;SDS011;14714;48.106;11.546;2023-04-25T07:22:06;5.57;;;2.55;;
27199;SDS011;14714;48.106;11.546;2023-04-25T07:24:33;4.43;;;2.30;;
27199;SDS011;14714;48.106;11.546;2023-04-25T07:27:00;3.78;;;2.50;;
27199;SDS011;14714;48.106;11.546;2023-04-25T07:29:27;4.95;;;2.70;;
27199;SDS011;14714;48.106;11.546;2023-04-25T07:31:54;5.72;;;2.63;;
27199;SDS011;14714;48.106;11.546;2023-04-25T07:34:21;4.28;;;2.40;;
27199;SDS011;14714;48.106;11.546;2023-04-25T07:36:47;4.28;;;2.28;;
27199;SDS011;14714;48.106;11.546;2023-04-25T07:39:14;4.95;;;2.83;;
27199;SDS011;14714;48.106;11.546;2023-04-25T07:41:41;4.70;;;2.53;;
27199;SDS011;14714;48.106;11.546;2023-04-25T07:44:08;4.75;;;2.50;;
27199;SDS011;14714;48.106;11.546;2023-04-25T07:46:34;4.60;;;2.30;;
27199;SDS011;14714;48.106;11.546;2023-04-25T07:49:01;3.42;;;2.05;;
27199;SDS011;14714;48.106;11.546;2023-04-25T07:51:28;4.85;;;2.30;;
27199;SDS011;14714;48.106;11.546;2023-04-25T07:53:55;3.72;;;2.50;;
27199;SDS011;14714;48.106;11.546;2023-04-25T07:56:22;5.10;;;2.33;;
27199;SDS011;14714;48.106;11.546;2023-04-25T07:58:49;8.93;;;2.83;;
27199;SDS011;14714;48.106;11.546;2023-04-25T08:01:16;5.30;;;2.30;;
27199;SDS011;14714;48.106;11.546;2023-04-25T08:03:42;5.35;;;2.30;;
27199;SDS011;14714;48.106;11.546;2023-04-25T08:06:10;3.80;;;1.90;;
27199;SDS011;14714;48.106;11.546;2023-04-25T08:08:37;2.55;;;1.83;;
27199;SDS011;14714;48.106;11.546;2023-04-25T08:11:04;4.25;;;2.15;;
27199;SDS011;14714;48.106;11.546;2023-04-25T08:13:31;2.92;;;1.92;;
27199;SDS011;14714;48.106;11.546;2023-04-25T08:15:57;3.72;;;2.10;;
27199;SDS011;14714;48.106;11.546;2023-04-25T08:18:24;4.75;;;2.10;;
27199;SDS011;14714;48.106;11.546;2023-04-25T08:20:51;3.00;;;2.10;;
27199;SDS011;14714;48.106;11.546;2023-04-25T08:23:18;6.32;;;2.22;;
27199;SDS011;14714;48.106;11.546;2023-04-25T08:25:45;4.47;;;2.00;;
27199;SDS011;14714;48.106;11.546;2023-04-25T08:28:12;3.13;;;2.00;;
27199;SDS011;14714;48.106;11.546;2023-04-25T08:30:38;2.70;;;1.90;;
27199;SDS011;14714;48.106;11.546;2023-04-25T08:33:05;4.93;;;2.10;;
27199;SDS011;14714;48.106;11.546;2023-04-25T08:35:32;3.88;;;2.20;;
27199;SDS011;14714;48.106;11.546;2023-04-25T08:37:59;3.50;;;2.28;;
27199;SDS011;14714;48.106;11.546;2023-04-25T08:40:27;5.38;;;2.03;;
27199;SDS011;14714;48.106;11.546;2023-04-25T08:42:57;6.50;;;2.67;;
27199;SDS011;14714;48.106;11.546;2023-04-25T08:45:26;4.47;;;2.00;;
27199;SDS011;14714;48.106;11.546;2023-04-25T08:47:54;4.03;;;2.00;;
27199;SDS011;14714;48.106;11.546;2023-04-25T08:50:23;3.03;;;1.90;;
27199;SDS011;14714;48.106;11.546;2023-04-25T08:52:53;3.47;;;1.70;;
27199;SDS011;14714;48.106;11.546;2023-04-25T08:55:21;3.90;;;1.90;;
27199;SDS011;14714;48.106;11.546;2023-04-25T08:57:48;4.07;;;1.77;;
27199;SDS011;14714;48.106;11.546;2023-04-25T09:00:16;3.35;;;1.80;;
27199;SDS011;14714;48.106;11.546;2023-04-25T09:02:44;2.92;;;1.60;;
27199;SDS011;14714;48.106;11.546;2023-04-25T09:05:13;3.63;;;1.77;;
27199;SDS011;14714;48.106;11.546;2023-04-25T09:07:40;2.45;;;1.60;;
27199;SDS011;14714;48.106;11.546;2023-04-25T09:10:07;4.10;;;1.80;;
27199;SDS011;14714;48.106;11.546;2023-04-25T09:12:34;5.10;;;1.63;;
27199;SDS011;14714;48.106;11.546;2023-04-25T09:15:11;4.50;;;1.77;;
27199;SDS011;14714;48.106;11.546;2023-04-25T09:17:46;2.55;;;1.30;;
27199;SDS011;14714;48.106;11.546;2023-04-25T09:20:24;2.63;;;1.55;;
27199;SDS011;14714;48.106;11.546;2023-04-25T09:23:05;2.15;;;1.42;;
27199;SDS011;14714;48.106;11.546;2023-04-25T09:25:36;4.40;;;1.63;;
27199;SDS011;14714;48.106;11.546;2023-04-25T09:28:05;3.05;;;1.70;;
27199;SDS011;14714;48.106;11.546;2023-04-25T09:30:33;2.58;;;1.50;;
27199;SDS011;14714;48.106;11.546;2023-04-25T09:33:11;5.15;;;1.70;;
27199;SDS011;14714;48.106;11.546;2023-04-25T09:35:42;6.20;;;1.80;;
27199;SDS011;14714;48.106;11.546;2023-04-25T09:38:13;4.13;;;1.60;;
27199;SDS011;14714;48.106;11.546;2023-04-25T09:45:48;2.78;;;1.50;;
27199;SDS011;14714;48.106;11.546;2023-04-25T09:48:19;3.55;;;1.83;;
27199;SDS011;14714;48.106;11.546;2023-04-25T09:53:36;2.08;;;1.70;;
27199;SDS011;14714;48.106;11.546;2023-04-25T09:56:05;3.03;;;1.85;;
27199;SDS011;14714;48.106;11.546;2023-04-25T09:58:34;4.78;;;1.48;;
27199;SDS011;14714;48.106;11.546;2023-04-25T10:01:03;5.45;;;1.70;;
27199;SDS011;14714;48.106;11.546;2023-04-25T10:03:32;2.88;;;1.60;;
27199;SDS011;14714;48.106;11.546;2023-04-25T10:06:02;5.70;;;1.88;;
27199;SDS011;14714;48.106;11.546;2023-04-25T10:08:34;2.42;;;1.70;;
27199;SDS011;14714;48.106;11.546;2023-04-25T10:11:03;4.07;;;1.80;;
27199;SDS011;14714;48.106;11.546;2023-04-25T10:13:32;4.28;;;1.65;;
27199;SDS011;14714;48.106;11.546;2023-04-25T10:15:59;4.28;;;1.63;;
27199;SDS011;14714;48.106;11.546;2023-04-25T10:18:28;3.47;;;1.70;;
27199;SDS011;14714;48.106;11.546;2023-04-25T10:20:56;3.13;;;1.75;;
27199;SDS011;14714;48.106;11.546;2023-04-25T10:23:26;3.55;;;1.80;;
27199;SDS011;14714;48.106;11.546;2023-04-25T10:25:55;4.05;;;1.70;;
27199;SDS011;14714;48.106;11.546;2023-04-25T10:28:23;4.35;;;1.80;;
27199;SDS011;14714;48.106;11.546;2023-04-25T10:30:56;3.70;;;1.80;;
27199;SDS011;14714;48.106;11.546;2023-04-25T10:38:45;1.98;;;1.45;;
27199;SDS011;14714;48.106;11.546;2023-04-25T10:41:12;2.90;;;1.50;;
27199;SDS011;14714;48.106;11.546;2023-04-25T10:43:43;3.50;;;1.35;;
27199;SDS011;14714;48.106;11.546;2023-04-25T10:48:47;2.85;;;1.20;;
27199;SDS011;14714;48.106;11.546;2023-04-25T10:51:28;2.30;;;1.25;;
27199;SDS011;14714;48.106;11.546;2023-04-25T10:54:08;1.45;;;1.27;;
27199;SDS011;14714;48.106;11.546;2023-04-25T10:59:06;1.70;;;1.30;;
27199;SDS011;14714;48.106;11.546;2023-04-25T11:01:43;2.83;;;1.80;;
27199;SDS011;14714;48.106;11.546;2023-04-25T11:04:25;1.70;;;1.25;;
27199;SDS011;14714;48.106;11.546;2023-04-25T11:09:48;5.10;;;2.00;;
27199;SDS011;14714;48.106;11.546;2023-04-25T11:12:16;3.45;;;1.95;;
27199;SDS011;14714;48.106;11.546;2023-04-25T11:14:43;2.47;;;1.70;;
27199;SDS011;14714;48.106;11.546;2023-04-25T11:17:10;2.67;;;1.50;;
27199;SDS011;14714;48.106;11.546;2023-04-25T11:19:37;1.85;;;1.20;;
27199;SDS011;14714;48.106;11.546;2023-04-25T11:22:04;3.13;;;1.20;;
27199;SDS011;14714;48.106;11.546;2023-04-25T11:24:33;2.30;;;1.40;;
27199;SDS011;14714;48.106;11.546;2023-04-25T11:27:04;1.42;;;1.33;;
27199;SDS011;14714;48.106;11.546;2023-04-25T11:29:34;4.78;;;1.30;;
27199;SDS011;14714;48.106;11.546;2023-04-25T11:32:01;2.55;;;1.38;;
27199;SDS011;14714;48.106;11.546;2023-04-25T11:34:29;2.13;;;1.40;;
27199;SDS011;14714;48.106;11.546;2023-04-25T11:36:57;1.83;;;1.40;;
27199;SDS011;14714;48.106;11.546;2023-04-25T11:39:24;3.42;;;1.63;;
27199;SDS011;14714;48.106;11.546;2023-04-25T11:41:52;3.15;;;1.50;;
27199;SDS011;14714;48.106;11.546;2023-04-25T11:44:20;2.90;;;1.60;;
27199;SDS011;14714;48.106;11.546;2023-04-25T11:46:47;2.83;;;1.60;;
27199;SDS011;14714;48.106;11.546;2023-04-25T11:49:15;3.25;;;1.80;;
27199;SDS011;14714;48.106;11.546;2023-04-25T11:51:45;4.43;;;2.00;;
27199;SDS011;14714;48.106;11.546;2023-04-25T11:54:13;2.28;;;2.00;;
27199;SDS011;14714;48.106;11.546;2023-04-25T11:56:41;3.95;;;1.90;;
27199;SDS011;14714;48.106;11.546;2023-04-25T11:59:08;1.90;;;1.60;;
27199;SDS011;14714;48.106;11.546;2023-04-25T12:01:38;3.38;;;1.40;;
27199;SDS011;14714;48.106;11.546;2023-04-25T12:04:16;1.98;;;1.60;;
27199;SDS011;14714;48.106;11.546;2023-04-25T12:06:45;4.03;;;1.40;;
27199;SDS011;14714;48.106;11.546;2023-04-25T12:09:30;3.38;;;1.30;;
27199;SDS011;14714;48.106;11.546;2023-04-25T12:11:58;1.45;;;1.30;;
27199;SDS011;14714;48.106;11.546;2023-04-25T12:14:33;1.88;;;1.23;;
27199;SDS011;14714;48.106;11.546;2023-04-25T12:17:02;1.30;;;1.20;;
27199;SDS011;14714;48.106;11.546;2023-04-25T12:19:34;2.38;;;1.23;;
27199;SDS011;14714;48.106;11.546;2023-04-25T12:22:02;2.72;;;1.45;;
27199;SDS011;14714;48.106;11.546;2023-04-25T12:24:32;2.75;;;1.40;;
27199;SDS011;14714;48.106;11.546;2023-04-25T12:27:05;1.63;;;1.27;;
27199;SDS011;14714;48.106;11.546;2023-04-25T12:29:36;1.80;;;1.30;;
27199;SDS011;14714;48.106;11.546;2023-04-25T12:32:14;2.20;;;1.10;;
27199;SDS011;14714;48.106;11.546;2023-04-25T12:34:42;1.63;;;1.25;;
27199;SDS011;14714;48.106;11.546;2023-04-25T12:37:09;2.80;;;1.27;;
27199;SDS011;14714;48.106;11.546;2023-04-25T12:39:36;1.08;;;0.98;;
27199;SDS011;14714;48.106;11.546;2023-04-25T12:42:03;1.25;;;1.02;;
27199;SDS011;14714;48.106;11.546;2023-04-25T12:44:34;2.15;;;1.10;;
27199;SDS011;14714;48.106;11.546;2023-04-25T12:47:01;1.92;;;1.20;;
27199;SDS011;14714;48.106;11.546;2023-04-25T12:49:29;1.98;;;1.30;;
27199;SDS011;14714;48.106;11.546;2023-04-25T12:51:56;1.30;;;1.20;;
27199;SDS011;14714;48.106;11.546;2023-04-25T12:54:23;1.38;;;1.17;;
27199;SDS011;14714;48.106;11.546;2023-04-25T12:56:51;1.23;;;1.10;;
27199;SDS011;14714;48.106;11.546;2023-04-25T12:59:18;1.10;;;1.00;;
27199;SDS011;14714;48.106;11.546;2023-04-25T13:01:46;2.17;;;1.00;;
27199;SDS011;14714;48.106;11.546;2023-04-25T13:04:13;1.42;;;0.90;;
27199;SDS011;14714;48.106;11.546;2023-04-25T13:06:40;1.40;;;1.00;;
27199;SDS011;14714;48.106;11.546;2023-04-25T13:09:07;1.90;;;0.95;;
27199;SDS011;14714;48.106;11.546;2023-04-25T13:11:34;1.00;;;0.90;;
27199;SDS011;14714;48.106;11.546;2023-04-25T13:14:01;1.23;;;0.90;;
27199;SDS011;14714;48.106;11.546;2023-04-25T13:16:28;1.38;;;0.93;;
27199;SDS011;14714;48.106;11.546;2023-04-25T13:18:55;2.03;;;1.00;;
27199;SDS011;14714;48.106;11.546;2023-04-25T13:21:22;1.95;;;1.50;;
27199;SDS011;14714;48.106;11.546;2023-04-25T13:23:49;1.30;;;1.20;;
27199;SDS011;14714;48.106;11.546;2023-04-25T13:26:17;1.10;;;1.00;;
27199;SDS011;14714;48.106;11.546;2023-04-25T13:28:44;1.70;;;1.20;;
27199;SDS011;14714;48.106;11.546;2023-04-25T13:31:11;1.40;;;1.10;;
27199;SDS011;14714;48.106;11.546;2023-04-25T13:33:37;1.48;;;1.15;;
27199;SDS011;14714;48.106;11.546;2023-04-25T13:36:04;2.67;;;1.30;;
27199;SDS011;14714;48.106;11.546;2023-04-25T13:38:31;3.03;;;1.50;;
27199;SDS011;14714;48.106;11.546;2023-04-25T13:40:58;0.88;;;0.88;;
27199;SDS011;14714;48.106;11.546;2023-04-25T13:43:27;1.08;;;0.98;;
27199;SDS011;14714;48.106;11.546;2023-04-25T13:45:53;1.40;;;1.05;;
27199;SDS011;14714;48.106;11.546;2023-04-25T13:48:20;2.13;;;0.98;;
27199;SDS011;14714;48.106;11.546;2023-04-25T13:50:48;1.20;;;1.10;;
27199;SDS011;14714;48.106;11.546;2023-04-25T13:53:15;1.10;;;1.00;;
27199;SDS011;14714;48.106;11.546;2023-04-25T13:55:42;2.17;;;1.00;;
27199;SDS011;14714;48.106;11.546;2023-04-25T13:58:09;0.80;;;0.80;;
27199;SDS011;14714;48.106;11.546;2023-04-25T14:00:37;0.70;;;0.70;;
27199;SDS011;14714;48.106;11.546;2023-04-25T14:03:05;1.50;;;0.70;;
27199;SDS011;14714;48.106;11.546;2023-04-25T14:05:35;0.90;;;0.60;;
27199;SDS011;14714;48.106;11.546;2023-04-25T14:08:06;1.08;;;0.80;;
27199;SDS011;14714;48.106;11.546;2023-04-25T14:10:34;3.58;;;1.00;;
27199;SDS011;14714;48.106;11.546;2023-04-25T14:13:02;1.00;;;0.90;;
27199;SDS011;14714;48.106;11.546;2023-04-25T14:15:32;0.80;;;0.80;;
27199;SDS011;14714;48.106;11.546;2023-04-25T14:18:00;1.85;;;1.00;;
27199;SDS011;14714;48.106;11.546;2023-04-25T14:20:27;3.55;;;0.70;;
27199;SDS011;14714;48.106;11.546;2023-04-25T14:22:54;2.28;;;0.63;;
27199;SDS011;14714;48.106;11.546;2023-04-25T14:25:23;1.10;;;0.63;;
27199;SDS011;14714;48.106;11.546;2023-04-25T14:27:51;1.08;;;0.80;;
27199;SDS011;14714;48.106;11.546;2023-04-25T14:30:19;0.80;;;0.80;;
27199;SDS011;14714;48.106;11.546;2023-04-25T14:32:48;1.10;;;1.00;;
27199;SDS011;14714;48.106;11.546;2023-04-25T14:35:15;1.23;;;0.73;;
27199;SDS011;14714;48.106;11.546;2023-04-25T14:37:42;2.08;;;0.93;;
27199;SDS011;14714;48.106;11.546;2023-04-25T14:40:09;1.83;;;0.98;;
27199;SDS011;14714;48.106;11.546;2023-04-25T14:42:37;0.80;;;0.80;;
27199;SDS011;14714;48.106;11.546;2023-04-25T14:45:05;1.55;;;1.00;;
27199;SDS011;14714;48.106;11.546;2023-04-25T14:47:37;1.08;;;0.98;;
27199;SDS011;14714;48.106;11.546;2023-04-25T14:50:05;1.38;;;1.10;;
27199;SDS011;14714;48.106;11.546;2023-04-25T14:52:33;1.55;;;1.20;;
27199;SDS011;14714;48.106;11.546;2023-04-25T14:55:00;1.27;;;0.88;;
27199;SDS011;14714;48.106;11.546;2023-04-25T14:57:31;1.67;;;1.40;;
27199;SDS011;14714;48.106;11.546;2023-04-25T14:59:58;1.88;;;1.50;;